Time;durP1;ratioP1;P1;durP2;ratioP2;P2;SDS_P1;SDS_P2;PMS_P1;PMS_P2;Temp;Humidity;BMP_temperature;BMP_pressure;BME280_temperature;BME280_humidity;BME280_pressure;Samples;Min_cycle;Max_cycle;Signal;HPM_P1;HPM_P2
2021/10/06 00:03:53;;;;;;;4.38;1.13;;;22.30;56.00;;;;;;31756109;28;20130;-43
2021/10/06 00:18:55;;;;;;;0.75;0.75;;;22.20;56.10;;;;;;31737042;28;20103;-39
2021/10/06 00:33:57;;;;;;;1.98;0.88;;;22.20;56.30;;;;;;31753333;28;20086;-40
2021/10/06 00:48:59;;;;;;;1.52;1.00;;;22.20;56.30;;;;;;31757445;28;20103;-40
2021/10/06 01:04:03;;;;;;;1.42;0.90;;;22.30;55.90;;;;;;31777713;28;20103;-41
2021/10/06 01:19:22;;;;;;;1.65;1.00;;;22.90;55.60;;;;;;31775892;28;20043;-39
2021/10/06 01:34:25;;;;;;;3.88;1.20;;;22.90;55.60;;;;;;31774048;28;20060;-39
2021/10/06 01:49:27;;;;;;;1.33;0.80;;;22.80;55.70;;;;;;31772122;28;20083;-39
2021/10/06 02:04:29;;;;;;;0.80;0.77;;;22.70;55.70;;;;;;31769871;28;20127;-40
2021/10/06 02:19:31;;;;;;;0.77;0.68;;;22.70;55.80;;;;;;31768185;28;20063;-40
2021/10/06 02:34:33;;;;;;;1.55;1.08;;;22.60;55.90;;;;;;31766566;28;20044;-40
2021/10/06 02:49:36;;;;;;;2.78;0.90;;;22.50;56.10;;;;;;31765027;28;20140;-41
2021/10/06 03:04:38;;;;;;;1.00;0.88;;;22.40;56.40;;;;;;31763066;28;20059;-39
2021/10/06 03:19:40;;;;;;;0.90;0.75;;;22.40;56.20;;;;;;31715116;28;20389;-39
2021/10/06 03:34:42;;;;;;;1.35;0.90;;;22.40;56.60;;;;;;31632680;28;20123;-39
2021/10/06 03:49:44;;;;;;;7.47;2.70;;;22.30;56.80;;;;;;31614363;28;20049;-45
2021/10/06 04:04:46;;;;;;;10.40;2.55;;;22.20;52.60;;;;;;31630101;28;20068;-45
2021/10/06 04:19:48;;;;;;;14.43;3.03;;;22.40;53.90;;;;;;31661228;28;20044;-45
2021/10/06 04:34:51;;;;;;;10.13;4.57;;;22.70;54.40;;;;;;31711956;28;20051;-44
2021/10/06 04:49:53;;;;;;;61.00;35.35;;;22.60;50.70;;;;;;31617645;28;20063;-41
2021/10/06 05:04:56;;;;;;;39.83;22.38;;;22.30;52.10;;;;;;31604606;28;20135;-44
2021/10/06 05:19:58;;;;;;;63.22;43.78;;;21.90;52.60;;;;;;31679907;28;20058;-40
2021/10/06 05:35:00;;;;;;;42.97;29.02;;;21.90;46.40;;;;;;31732441;28;20216;-48
2021/10/06 05:50:03;;;;;;;31.35;20.23;;;22.10;46.90;;;;;;31768423;28;20059;-46
2021/10/06 06:05:06;;;;;;;27.10;15.25;;;22.60;44.90;;;;;;31750581;28;20055;-44
2021/10/06 06:20:12;;;;;;;25.05;15.88;;;22.70;45.30;;;;;;31765784;28;20091;-46
2021/10/06 06:35:14;;;;;;;24.80;14.32;;;22.50;45.70;;;;;;31763843;28;20040;-46
2021/10/06 06:50:18;;;;;;;18.60;10.60;;;22.40;46.60;;;;;;31761998;28;20083;-45
2021/10/06 07:05:20;;;;;;;18.80;10.55;;;22.30;45.70;;;;;;31761032;28;20075;-46
2021/10/06 07:20:22;;;;;;;21.50;9.13;;;22.60;46.10;;;;;;31759319;28;20036;-45
2021/10/06 07:35:24;;;;;;;12.98;7.93;;;22.70;46.10;;;;;;31757333;28;20044;-46
2021/10/06 07:50:26;;;;;;;12.38;7.18;;;22.70;45.90;;;;;;31755344;28;20084;-46
2021/10/06 08:05:29;;;;;;;10.93;6.63;;;22.50;45.90;;;;;;31753605;28;20048;-45
2021/10/06 08:20:33;;;;;;;12.07;6.10;;;22.40;46.30;;;;;;31752254;28;20101;-46
2021/10/06 08:35:37;;;;;;;12.95;7.07;;;22.30;45.70;;;;;;31751025;28;20607;-45
2021/10/06 08:50:39;;;;;;;9.77;5.75;;;22.50;46.00;;;;;;31624514;28;20053;-44
2021/10/06 09:05:41;;;;;;;10.40;5.70;;;22.70;45.60;;;;;;31623375;28;20068;-45
2021/10/06 09:20:45;;;;;;;8.65;5.80;;;22.70;45.50;;;;;;31644587;28;20119;-47
2021/10/06 09:35:51;;;;;;;9.30;4.95;;;22.60;45.80;;;;;;31645579;28;20067;-46
2021/10/06 09:50:53;;;;;;;13.90;5.28;;;22.60;45.80;;;;;;31770589;28;20174;-44
2021/10/06 10:05:55;;;;;;;7.57;5.05;;;22.50;46.30;;;;;;31675587;28;20099;-37
2021/10/06 10:21:00;;;;;;;12.18;4.57;;;22.50;46.70;;;;;;31636473;28;20035;-41
2021/10/06 10:36:02;;;;;;;12.38;5.22;;;22.50;48.00;;;;;;31636889;28;20052;-41
2021/10/06 10:51:07;;;;;;;9.07;4.43;;;22.50;48.20;;;;;;31626866;28;20100;-52
2021/10/06 11:06:35;;;;;;;11.63;4.15;;;22.50;48.80;;;;;;31263147;28;10000059;-48
2021/10/06 11:21:41;;;;;;;5.28;3.92;;;22.50;50.30;;;;;;31619694;28;20073;-52
2021/10/06 11:36:54;;;;;;;12.25;4.65;;;22.40;49.80;;;;;;31616354;28;20103;-43
2021/10/06 11:51:57;;;;;;;7.65;4.10;;;22.40;51.40;;;;;;31613062;28;20043;-39
2021/10/06 12:07:02;;;;;;;11.27;4.82;;;22.40;53.20;;;;;;31634052;28;20067;-43
2021/10/06 12:22:06;;;;;;;10.23;4.00;;;22.30;52.60;;;;;;31620765;28;20037;-45
2021/10/06 12:37:08;;;;;;;5.22;3.42;;;22.30;52.30;;;;;;31615256;28;20109;-45
2021/10/06 12:52:10;;;;;;;5.65;3.25;;;22.70;51.80;;;;;;31604370;28;20044;-45
2021/10/06 13:07:13;;;;;;;10.52;3.42;;;22.90;51.80;;;;;;31232999;28;10000488;-44
2021/10/06 13:22:15;;;;;;;8.18;3.25;;;22.90;52.00;;;;;;31639789;28;20041;-48
2021/10/06 13:37:17;;;;;;;3.95;2.60;;;22.90;52.50;;;;;;31637592;28;20072;-45
2021/10/06 13:52:21;;;;;;;4.78;2.40;;;22.70;52.60;;;;;;31656330;28;20089;-40
2021/10/06 14:07:23;;;;;;;4.53;2.60;;;22.70;52.70;;;;;;31639048;28;20048;-40
2021/10/06 14:22:26;;;;;;;7.75;2.92;;;22.70;52.50;;;;;;31617279;28;20040;-44
2021/10/06 14:37:28;;;;;;;16.55;3.80;;;22.70;53.00;;;;;;31617224;28;20051;-47
2021/10/06 14:52:31;;;;;;;16.33;4.60;;;22.60;53.90;;;;;;31603490;28;20060;-42
2021/10/06 15:07:34;;;;;;;12.38;3.85;;;22.60;54.30;;;;;;31627791;28;20100;-45
2021/10/06 15:22:36;;;;;;;13.00;3.75;;;22.70;54.60;;;;;;31630229;28;20068;-49
2021/10/06 15:37:39;;;;;;;10.48;2.40;;;22.70;54.00;;;;;;31629823;28;20071;-43
2021/10/06 15:52:41;;;;;;;12.50;3.80;;;22.60;53.90;;;;;;31631279;28;20037;-49
2021/10/06 16:07:43;;;;;;;12.60;3.30;;;22.50;56.70;;;;;;31630214;28;20136;-50
2021/10/06 16:22:45;;;;;;;9.40;2.75;;;22.50;56.20;;;;;;31621335;28;20040;-46
2021/10/06 16:37:47;;;;;;;6.57;3.05;;;22.50;56.40;;;;;;31622522;28;20088;-40
2021/10/06 16:52:50;;;;;;;10.38;2.42;;;22.50;56.20;;;;;;31264371;28;10000097;-49
2021/10/06 17:07:53;;;;;;;23.77;2.75;;;22.50;56.20;;;;;;31613986;28;20052;-46
2021/10/06 17:22:56;;;;;;;6.13;2.35;;;22.60;56.00;;;;;;31592656;28;20055;-42
2021/10/06 17:37:58;;;;;;;6.00;2.80;;;22.70;57.10;;;;;;31610190;28;20052;-45
2021/10/06 17:53:04;;;;;;;10.40;2.55;;;22.70;57.70;;;;;;31637743;28;20044;-44
2021/10/06 18:08:12;;;;;;;14.30;3.15;;;22.70;57.40;;;;;;31634349;28;20055;-39
2021/10/06 18:23:14;;;;;;;11.40;3.50;;;22.70;57.10;;;;;;31630343;28;20052;-50
2021/10/06 18:38:19;;;;;;;9.48;2.83;;;22.70;57.40;;;;;;31626961;28;20052;-51
2021/10/06 18:53:21;;;;;;;7.10;2.40;;;22.60;57.20;;;;;;31632168;28;20044;-41
2021/10/06 19:08:23;;;;;;;9.75;2.38;;;22.70;57.50;;;;;;31615807;28;20102;-44
2021/10/06 19:23:25;;;;;;;4.57;2.38;;;22.80;57.30;;;;;;31633576;28;20095;-42
2021/10/06 19:38:28;;;;;;;6.45;3.17;;;22.90;57.50;;;;;;31614877;28;20136;-43
2021/10/06 19:53:30;;;;;;;9.40;3.10;;;22.80;60.20;;;;;;31502083;28;20044;-38
2021/10/06 20:08:32;;;;;;;12.52;7.97;;;22.60;61.20;;;;;;31487508;28;20045;-45
2021/10/06 20:23:34;;;;;;;11.82;7.10;;;22.70;57.30;;;;;;31583670;28;20078;-45
2021/10/06 20:38:36;;;;;;;8.02;6.03;;;22.70;56.80;;;;;;31624066;28;20100;-45
2021/10/06 20:53:39;;;;;;;7.82;5.63;;;22.80;56.90;;;;;;31623927;28;20066;-41
2021/10/06 21:08:41;;;;;;;9.70;5.43;;;22.80;56.70;;;;;;31629978;28;20048;-47
2021/10/06 21:23:45;;;;;;;8.13;4.47;;;22.80;56.60;;;;;;31649148;28;20124;-50
2021/10/06 21:38:47;;;;;;;11.27;5.00;;;22.80;56.80;;;;;;31640169;28;20382;-47
2021/10/06 21:53:49;;;;;;;5.70;4.40;;;22.80;56.90;;;;;;31638873;28;20100;-51
2021/10/06 22:08:51;;;;;;;82.22;61.35;;;22.80;56.50;;;;;;31637422;28;20044;-47
2021/10/06 22:23:53;;;;;;;29.70;22.85;;;22.60;57.00;;;;;;31643017;28;20094;-41
2021/10/06 22:38:55;;;;;;;28.05;21.08;;;22.70;56.70;;;;;;31641020;28;20062;-41
2021/10/06 22:53:58;;;;;;;24.95;18.73;;;22.80;56.50;;;;;;31639054;28;20124;-45
2021/10/06 23:09:00;;;;;;;24.52;18.17;;;22.70;56.50;;;;;;31630854;28;20102;-43
2021/10/06 23:24:02;;;;;;;21.15;16.27;;;22.70;57.00;;;;;;31633385;28;20098;-49
2021/10/06 23:39:04;;;;;;;21.40;15.00;;;22.70;57.00;;;;;;31618960;28;20104;-44
2021/10/06 23:54:06;;;;;;;38.88;29.88;;;22.60;57.00;;;;;;31629003;28;20048;-43
